createdAt,value
2022-12-08T00:02:33.655Z,97230.50
2022-12-08T00:05:39.144Z,97227.56
2022-12-08T00:08:44.742Z,97220.63
2022-12-08T00:11:31.657Z,97214.84
2022-12-08T00:14:18.990Z,97208.41
2022-12-08T00:17:07.729Z,97214.81
2022-12-08T00:19:54.710Z,97207.69
2022-12-08T00:22:41.628Z,97205.19
2022-12-08T00:25:28.569Z,97208.88
2022-12-08T00:28:15.509Z,97210.13
2022-12-08T00:31:08.760Z,97194.88
2022-12-08T00:33:55.749Z,97198.91
2022-12-08T00:36:42.894Z,97198.94
2022-12-08T00:39:29.900Z,97192.31
2022-12-08T00:42:17.212Z,97198.94
2022-12-08T00:45:04.644Z,97197.88
2022-12-08T00:47:51.573Z,97197.41
2022-12-08T00:50:38.485Z,97191.25
2022-12-08T00:53:25.504Z,97190.16
2022-12-08T00:56:12.383Z,97190.31
2022-12-08T00:58:59.585Z,97188.28
2022-12-08T01:01:47.495Z,97189.00
2022-12-08T01:04:34.409Z,97196.66
2022-12-08T01:07:21.336Z,97197.09
2022-12-08T01:10:08.897Z,97193.22
2022-12-08T01:12:55.783Z,97188.91
2022-12-08T01:15:42.727Z,97192.38
2022-12-08T01:18:29.748Z,97193.66
2022-12-08T01:21:17.392Z,97187.41
2022-12-08T01:24:04.960Z,97184.03
2022-12-08T01:26:51.932Z,97172.81
2022-12-08T01:29:38.896Z,97180.22
2022-12-08T01:32:25.888Z,97186.56
2022-12-08T01:35:13.704Z,97178.94
2022-12-08T01:38:00.596Z,97182.34
2022-12-08T01:40:47.548Z,97176.69
2022-12-08T01:43:54.347Z,97178.13
2022-12-08T01:46:43.677Z,97169.28
2022-12-08T01:49:34.724Z,97176.56
2022-12-08T01:52:35.616Z,97170.25
2022-12-08T01:55:53.858Z,97171.84
2022-12-08T01:58:47.930Z,97169.59
2022-12-08T02:01:34.993Z,97173.53
2022-12-08T02:04:22.008Z,97167.63
2022-12-08T02:07:12.584Z,97168.16
2022-12-08T02:10:00.117Z,97168.38
2022-12-08T02:12:48.877Z,97159.56
2022-12-08T02:16:00.363Z,97160.50
2022-12-08T02:19:34.305Z,97158.44
2022-12-08T02:22:32.831Z,97148.34
2022-12-08T02:25:35.631Z,97154.59
2022-12-08T02:29:04.167Z,97156.91
2022-12-08T02:32:44.823Z,97149.03
2022-12-08T02:35:46.653Z,97145.47
2022-12-08T02:39:03.676Z,97145.19
2022-12-08T02:42:12.371Z,97142.19
2022-12-08T02:45:51.974Z,97136.16
2022-12-08T02:48:39.992Z,97137.34
2022-12-08T02:51:26.951Z,97139.53
2022-12-08T02:54:15.129Z,97129.47
2022-12-08T02:57:32.029Z,97126.31
2022-12-08T03:00:21.606Z,97126.72
2022-12-08T03:03:35.024Z,97125.94
2022-12-08T03:06:57.591Z,97121.69
2022-12-08T03:09:56.458Z,97123.38
2022-12-08T03:12:49.608Z,97113.03
2022-12-08T03:15:38.909Z,97111.06
2022-12-08T03:18:31.696Z,97107.44
2022-12-08T03:21:20.631Z,97108.09
2022-12-08T03:24:10.445Z,97102.50
2022-12-08T03:27:03.777Z,97102.69
2022-12-08T03:29:53.422Z,97093.88
2022-12-08T03:32:47.948Z,97098.09
2022-12-08T03:35:39.292Z,97098.56
2022-12-08T03:38:26.297Z,97098.03
2022-12-08T03:41:19.118Z,97090.25
2022-12-08T03:44:06.217Z,97084.66
2022-12-08T03:46:53.153Z,97076.34
2022-12-08T03:49:40.853Z,97076.03
2022-12-08T03:52:28.000Z,97075.66
2022-12-08T03:55:15.727Z,97071.13
2022-12-08T03:58:02.655Z,97074.88
2022-12-08T04:00:49.857Z,97072.31
2022-12-08T04:03:36.958Z,97068.78
2022-12-08T04:06:24.351Z,97079.97
2022-12-08T04:09:11.335Z,97069.41
2022-12-08T04:11:58.257Z,97075.53
2022-12-08T04:14:45.175Z,97075.03
2022-12-08T04:17:32.141Z,97072.84
2022-12-08T04:20:19.049Z,97079.41
2022-12-08T04:23:05.968Z,97078.81
2022-12-08T04:25:54.538Z,97067.75
2022-12-08T04:28:41.510Z,97076.13
2022-12-08T04:31:28.444Z,97071.25
2022-12-08T04:34:15.524Z,97066.28
2022-12-08T04:37:02.446Z,97071.59
2022-12-08T04:39:49.367Z,97067.88
2022-12-08T04:42:36.431Z,97055.88
2022-12-08T04:45:23.355Z,97063.16
2022-12-08T04:48:13.151Z,97060.69
2022-12-08T04:51:00.180Z,97059.00
2022-12-08T04:53:47.383Z,97058.06
2022-12-08T04:56:34.476Z,97061.13
2022-12-08T04:59:21.360Z,97064.69
2022-12-08T05:02:08.685Z,97055.28
2022-12-08T05:04:55.697Z,97050.63
2022-12-08T05:07:42.670Z,97055.22
2022-12-08T05:10:29.609Z,97052.00
2022-12-08T05:13:16.646Z,97051.50
2022-12-08T05:16:09.956Z,97041.75
2022-12-08T05:18:56.888Z,97039.22
2022-12-08T05:21:44.401Z,97042.19
2022-12-08T05:24:31.351Z,97041.41
2022-12-08T05:27:18.295Z,97042.91
2022-12-08T05:30:06.537Z,97039.06
2022-12-08T05:32:53.619Z,97043.72
2022-12-08T05:35:40.616Z,97036.66
2022-12-08T05:38:27.552Z,97043.38
2022-12-08T05:41:20.511Z,97038.56
2022-12-08T05:44:07.379Z,97049.78
2022-12-08T05:46:54.356Z,97041.75
2022-12-08T05:49:41.249Z,97042.47
2022-12-08T05:52:28.357Z,97041.56
2022-12-08T05:55:15.331Z,97039.28
2022-12-08T05:58:07.658Z,97038.88
2022-12-08T06:00:54.980Z,97036.59
2022-12-08T06:03:41.944Z,97039.28
2022-12-08T06:06:29.823Z,97038.78
2022-12-08T06:09:17.035Z,97040.66
2022-12-08T06:12:04.155Z,97039.13
2022-12-08T06:14:51.197Z,97047.94
2022-12-08T06:17:38.117Z,97050.41
2022-12-08T06:20:25.068Z,97048.09
2022-12-08T06:23:12.012Z,97042.31
2022-12-08T06:26:03.656Z,97046.25
2022-12-08T06:28:51.159Z,97043.56
2022-12-08T06:31:38.305Z,97042.56
2022-12-08T06:34:25.424Z,97042.47
2022-12-08T06:37:12.367Z,97042.19
2022-12-08T06:39:59.413Z,97046.88
2022-12-08T06:42:47.293Z,97040.22
2022-12-08T06:45:34.321Z,97038.03
2022-12-08T06:48:21.283Z,97041.00
2022-12-08T06:51:13.777Z,97039.63
2022-12-08T06:54:01.493Z,97029.91
2022-12-08T06:56:48.368Z,97035.25
2022-12-08T06:59:35.328Z,97035.00
2022-12-08T07:02:22.769Z,97045.84
2022-12-08T07:05:09.698Z,97042.28
2022-12-08T07:07:56.674Z,97042.72
2022-12-08T07:10:46.572Z,97042.72
2022-12-08T07:13:33.427Z,97043.31
2022-12-08T07:16:20.464Z,97050.94
2022-12-08T07:19:07.492Z,97041.91
2022-12-08T07:21:54.421Z,97051.06
2022-12-08T07:24:41.266Z,97054.25
2022-12-08T07:27:28.653Z,97052.69
2022-12-08T07:30:15.622Z,97047.25
2022-12-08T07:33:04.798Z,97050.81
2022-12-08T07:36:00.041Z,97052.13
2022-12-08T07:38:47.632Z,97042.31
2022-12-08T07:41:34.555Z,97040.06
2022-12-08T07:44:21.441Z,97039.88
2022-12-08T07:47:08.335Z,97037.97
2022-12-08T07:49:55.242Z,97039.88
2022-12-08T07:52:42.066Z,97037.09
2022-12-08T07:55:29.023Z,97042.78
2022-12-08T07:58:15.838Z,97045.41
2022-12-08T08:01:03.324Z,97040.16
2022-12-08T08:03:50.345Z,97040.88
2022-12-08T08:06:37.987Z,97045.03
2022-12-08T08:09:04.651Z,97041.47
2022-12-08T08:11:31.209Z,97040.59
2022-12-08T08:13:58.233Z,97041.69
2022-12-08T08:16:24.937Z,97039.16
2022-12-08T08:18:51.774Z,97032.53
2022-12-08T08:21:44.418Z,97032.75
2022-12-08T08:24:06.265Z,97042.44
2022-12-08T08:26:32.861Z,97048.47
2022-12-08T08:28:59.440Z,97046.72
2022-12-08T08:31:27.068Z,97043.56
2022-12-08T08:33:54.059Z,97047.09
2022-12-08T08:36:22.090Z,97048.09
2022-12-08T08:38:48.790Z,97049.84
2022-12-08T08:41:15.379Z,97050.41
2022-12-08T08:43:41.965Z,97053.41
2022-12-08T08:46:09.111Z,97053.25
2022-12-08T08:48:36.275Z,97054.53
2022-12-08T08:51:11.627Z,97059.75
2022-12-08T08:53:38.408Z,97056.69
2022-12-08T08:56:13.517Z,97050.47
2022-12-08T08:58:40.754Z,97055.50
2022-12-08T09:01:07.657Z,97058.09
2022-12-08T09:03:34.588Z,97052.19
2022-12-08T09:06:01.202Z,97043.00
2022-12-08T09:08:27.879Z,97047.44
2022-12-08T09:10:55.074Z,97042.78
2022-12-08T09:13:22.383Z,97049.22
2022-12-08T09:15:49.253Z,97045.16
2022-12-08T09:18:15.859Z,97039.16
2022-12-08T09:20:42.537Z,97051.28
2022-12-08T09:23:09.094Z,97046.41
2022-12-08T09:25:35.677Z,97046.00
2022-12-08T09:28:02.276Z,97038.63
2022-12-08T09:30:28.858Z,97035.31
2022-12-08T09:32:55.484Z,97037.41
2022-12-08T09:35:22.058Z,97036.88
2022-12-08T09:37:48.574Z,97029.91
2022-12-08T09:40:18.921Z,97026.50
2022-12-08T09:43:24.593Z,97017.78
2022-12-08T09:45:51.783Z,97017.03
2022-12-08T09:48:23.290Z,97011.44
2022-12-08T09:50:58.027Z,97012.28
2022-12-08T09:53:37.116Z,97007.19
2022-12-08T09:56:17.015Z,97006.44
2022-12-08T09:59:32.365Z,97006.97
2022-12-08T10:02:01.053Z,96992.47
2022-12-08T10:04:38.553Z,96985.63
2022-12-08T10:07:48.330Z,96984.38
2022-12-08T10:11:04.528Z,96980.09
2022-12-08T10:13:40.488Z,96977.22
2022-12-08T10:16:30.387Z,96975.34
2022-12-08T10:19:09.246Z,96977.72
2022-12-08T10:21:35.863Z,96967.97
2022-12-08T10:24:11.459Z,96969.41
2022-12-08T10:26:38.249Z,96968.06
2022-12-08T10:29:06.502Z,96964.53
2022-12-08T10:31:33.304Z,96959.88
2022-12-08T10:34:01.992Z,96963.06
2022-12-08T10:36:57.405Z,96957.91
2022-12-08T10:39:38.905Z,96957.06
2022-12-08T10:42:20.749Z,96952.69
2022-12-08T10:45:03.999Z,96946.38
2022-12-08T10:47:37.011Z,96945.75
2022-12-08T10:50:27.912Z,96935.13
2022-12-08T10:53:28.959Z,96934.66
2022-12-08T10:56:16.197Z,96923.31
2022-12-08T10:58:47.881Z,96922.50
2022-12-08T11:01:24.035Z,96919.88
2022-12-08T11:03:52.065Z,96913.63
2022-12-08T11:06:20.524Z,96904.19
2022-12-08T11:09:36.381Z,96911.66
2022-12-08T11:12:30.504Z,96902.81
2022-12-08T11:15:03.380Z,96903.97
2022-12-08T11:17:39.436Z,96904.28
2022-12-08T11:20:24.205Z,96894.41
2022-12-08T11:22:55.893Z,96892.09
2022-12-08T11:25:27.716Z,96891.06
2022-12-08T11:27:58.132Z,96890.66
2022-12-08T11:30:31.851Z,96888.09
2022-12-08T11:33:18.317Z,96880.19
2022-12-08T11:35:50.041Z,96887.44
2022-12-08T11:38:22.704Z,96879.88
2022-12-08T11:40:58.556Z,96881.44
2022-12-08T11:43:58.616Z,96870.84
2022-12-08T11:46:32.505Z,96877.38
2022-12-08T11:49:13.082Z,96872.31
2022-12-08T11:52:02.722Z,96868.81
2022-12-08T11:54:38.833Z,96868.69
2022-12-08T11:57:10.839Z,96877.13
2022-12-08T11:59:50.865Z,96861.84
2022-12-08T12:02:25.380Z,96856.97
2022-12-08T12:06:08.594Z,96855.13
2022-12-08T12:09:22.922Z,96850.13
2022-12-08T12:12:26.643Z,96850.63
2022-12-08T12:15:52.632Z,96850.31
2022-12-08T12:44:38.159Z,96825.94
2022-12-08T12:47:11.554Z,96824.16
2022-12-08T12:50:06.565Z,96819.16
2022-12-08T12:52:37.661Z,96822.06
2022-12-08T12:55:50.284Z,96827.06
2022-12-08T12:58:53.646Z,96815.53
2022-12-08T13:01:37.997Z,96822.91
2022-12-08T13:04:11.089Z,96822.25
2022-12-08T13:06:48.570Z,96820.81
2022-12-08T13:09:21.643Z,96814.38
2022-12-08T13:11:54.937Z,96815.09
2022-12-08T13:14:34.507Z,96814.16
2022-12-08T13:17:05.129Z,96810.53
2022-12-08T13:19:33.116Z,96811.28
2022-12-08T13:22:00.249Z,96808.56
2022-12-08T13:24:33.907Z,96805.88
2022-12-08T13:27:32.377Z,96808.16
2022-12-08T13:30:36.398Z,96814.47
2022-12-08T13:33:19.363Z,96811.78
2022-12-08T13:35:56.476Z,96812.91
2022-12-08T13:38:29.209Z,96816.13
2022-12-08T13:40:57.156Z,96811.00
2022-12-08T13:44:20.252Z,96802.69
2022-12-08T13:58:37.786Z,96814.63
2022-12-08T14:01:15.147Z,96816.59
2022-12-08T14:04:31.093Z,96810.59
2022-12-08T14:06:48.782Z,96812.03
2022-12-08T14:09:23.971Z,96820.47
2022-12-08T14:12:05.399Z,96811.03
2022-12-08T14:15:02.423Z,96815.00
2022-12-08T14:17:30.621Z,96813.22
2022-12-08T14:20:25.679Z,96807.00
2022-12-08T14:22:53.648Z,96800.91
2022-12-08T14:25:21.192Z,96806.94
2022-12-08T14:27:48.725Z,96816.50
2022-12-08T14:30:28.684Z,96816.28
2022-12-08T14:33:01.034Z,96809.06
2022-12-08T14:35:38.322Z,96821.28
2022-12-08T14:38:13.201Z,96824.63
2022-12-08T14:40:47.214Z,96811.78
2022-12-08T14:43:26.301Z,96816.56
2022-12-08T14:45:56.177Z,96814.59
2022-12-08T14:48:42.733Z,96804.25
2022-12-08T14:51:31.610Z,96820.31
2022-12-08T14:54:22.777Z,96817.41
2022-12-08T14:56:53.013Z,96812.25
2022-12-08T14:59:31.121Z,96812.03
2022-12-08T15:02:31.374Z,96810.69
2022-12-08T15:05:04.934Z,96815.91
2022-12-08T15:07:47.287Z,96809.56
2022-12-08T15:10:26.668Z,96808.22
2022-12-08T15:13:31.618Z,96809.69
2022-12-08T15:15:58.537Z,96812.28
2022-12-08T15:19:02.012Z,96807.84
2022-12-08T15:21:31.039Z,96808.34
2022-12-08T15:23:57.634Z,96803.59
2022-12-08T15:26:26.312Z,96813.88
2022-12-08T15:28:53.433Z,96807.22
2022-12-08T15:31:20.897Z,96815.09
2022-12-08T15:33:48.236Z,96811.47
2022-12-08T15:36:14.758Z,96807.63
2022-12-08T15:38:42.870Z,96807.22
2022-12-08T15:41:14.633Z,96804.03
2022-12-08T15:43:41.942Z,96805.56
2022-12-08T15:46:08.594Z,96805.78
2022-12-08T15:48:37.365Z,96803.91
2022-12-08T15:51:04.088Z,96807.13
2022-12-08T15:53:32.124Z,96803.06
2022-12-08T15:58:55.522Z,96810.75
2022-12-08T16:01:23.369Z,96816.75
2022-12-08T16:09:31.272Z,96818.69
2022-12-08T16:12:16.840Z,96804.41
2022-12-08T16:17:31.568Z,96818.06
2022-12-08T16:19:59.208Z,96812.78
2022-12-08T16:25:20.384Z,96808.06
2022-12-08T16:28:44.798Z,96817.59
2022-12-08T16:30:40.102Z,96818.53
2022-12-08T16:33:06.927Z,96812.63
2022-12-08T16:35:33.572Z,96817.06
2022-12-08T16:38:00.242Z,96820.66
2022-12-08T16:40:26.864Z,96820.94
2022-12-08T16:42:53.504Z,96817.34
2022-12-08T16:45:25.965Z,96815.44
2022-12-08T16:47:56.990Z,96817.63
2022-12-08T16:50:26.766Z,96813.94
2022-12-08T16:52:59.904Z,96822.72
2022-12-08T16:55:27.069Z,96814.84
2022-12-08T16:57:54.255Z,96814.34
2022-12-08T17:00:23.736Z,96818.34
2022-12-08T17:02:51.697Z,96807.06
2022-12-08T17:05:20.360Z,96807.78
2022-12-08T17:07:49.087Z,96802.41
2022-12-08T17:10:18.814Z,96802.22
2022-12-08T17:12:46.007Z,96805.09
2022-12-08T17:15:19.776Z,96806.34
2022-12-08T17:17:46.451Z,96808.53
2022-12-08T17:20:16.011Z,96807.97
2022-12-08T17:22:42.626Z,96812.06
2022-12-08T17:25:09.678Z,96800.88
2022-12-08T17:27:36.996Z,96799.19
2022-12-08T17:30:05.174Z,96798.78
2022-12-08T17:32:32.154Z,96802.25
2022-12-08T17:34:58.865Z,96796.56
2022-12-08T17:37:26.200Z,96793.88
2022-12-08T17:39:52.848Z,96790.72
2022-12-08T17:42:19.455Z,96792.88
2022-12-08T17:44:46.756Z,96794.25
2022-12-08T17:47:13.298Z,96798.38
2022-12-08T17:49:39.847Z,96793.00
2022-12-08T17:52:10.768Z,96793.44
2022-12-08T17:54:37.900Z,96782.47
2022-12-08T17:57:05.543Z,96783.19
2022-12-08T17:59:32.903Z,96785.16
2022-12-08T18:01:59.739Z,96783.88
2022-12-08T18:04:27.801Z,96785.19
2022-12-08T18:06:54.978Z,96795.59
2022-12-08T18:09:21.799Z,96797.41
2022-12-08T18:11:48.435Z,96785.03
2022-12-08T18:14:16.074Z,96789.69
2022-12-08T18:16:45.218Z,96787.22
2022-12-08T18:19:13.186Z,96783.59
2022-12-08T18:21:41.456Z,96784.84
2022-12-08T18:24:14.282Z,96788.53
2022-12-08T18:26:40.869Z,96784.75
2022-12-08T18:29:07.444Z,96780.63
2022-12-08T18:31:34.160Z,96778.06
2022-12-08T18:34:00.735Z,96779.06
2022-12-08T18:36:28.836Z,96769.78
2022-12-08T18:38:55.710Z,96760.59
2022-12-08T18:41:25.672Z,96756.47
2022-12-08T18:43:54.279Z,96759.88
2022-12-08T18:46:21.345Z,96761.97
2022-12-08T18:48:49.645Z,96771.00
2022-12-08T18:51:18.921Z,96769.25
2022-12-08T18:53:46.734Z,96773.16
2022-12-08T18:56:31.246Z,96772.03
2022-12-08T18:59:03.356Z,96771.75
2022-12-08T19:01:35.409Z,96776.66
2022-12-08T19:04:27.274Z,96772.03
2022-12-08T19:06:52.772Z,96768.34
2022-12-08T19:09:19.935Z,96761.75
2022-12-08T19:11:46.567Z,96762.16
2022-12-08T19:14:13.316Z,96756.50
2022-12-08T19:16:39.911Z,96760.25
2022-12-08T19:19:06.504Z,96759.81
2022-12-08T19:21:34.124Z,96769.19
2022-12-08T19:24:01.545Z,96765.22
2022-12-08T19:26:28.764Z,96760.53
2022-12-08T19:28:56.207Z,96763.09
2022-12-08T19:31:23.063Z,96760.28
2022-12-08T19:33:49.764Z,96762.34
2022-12-08T19:36:19.154Z,96764.56
2022-12-08T19:39:04.506Z,96762.34
2022-12-08T19:41:50.282Z,96762.63
2022-12-08T19:44:48.737Z,96756.28
2022-12-08T19:47:15.604Z,96756.06
2022-12-08T19:49:42.294Z,96752.66
2022-12-08T19:52:09.171Z,96765.78
2022-12-08T19:54:36.111Z,96760.41
2022-12-08T19:57:03.182Z,96763.56
2022-12-08T19:59:30.338Z,96756.97
2022-12-08T20:01:58.623Z,96761.94
2022-12-08T20:04:26.849Z,96755.06
2022-12-08T20:06:55.423Z,96752.31
2022-12-08T20:09:23.504Z,96759.63
2022-12-08T20:11:50.882Z,96759.09
2022-12-08T20:14:21.208Z,96758.53
2022-12-08T20:16:47.984Z,96762.66
2022-12-08T20:19:14.613Z,96768.59
2022-12-08T20:21:41.199Z,96758.63
2022-12-08T20:24:08.037Z,96758.63
2022-12-08T20:26:34.757Z,96764.22
2022-12-08T20:29:01.384Z,96759.59
2022-12-08T20:31:30.562Z,96753.81
2022-12-08T20:33:57.298Z,96763.84
2022-12-08T20:36:24.403Z,96757.78
2022-12-08T20:38:52.872Z,96761.72
2022-12-08T20:41:20.420Z,96769.06
2022-12-08T20:43:47.841Z,96767.53
2022-12-08T20:46:16.996Z,96768.19
2022-12-08T20:48:44.598Z,96767.72
2022-12-08T20:51:19.313Z,96764.78
2022-12-08T20:53:46.752Z,96766.78
2022-12-08T20:56:15.688Z,96765.28
2022-12-08T20:58:42.906Z,96766.00
2022-12-08T21:01:14.401Z,96769.44
2022-12-08T21:03:41.702Z,96758.00
2022-12-08T21:06:08.900Z,96773.09
2022-12-08T21:08:35.993Z,96773.06
2022-12-08T21:11:03.486Z,96766.16
2022-12-08T21:13:30.205Z,96763.66
2022-12-08T21:15:57.552Z,96769.97
2022-12-08T21:18:24.555Z,96771.72
2022-12-08T21:20:51.912Z,96775.78
2022-12-08T21:23:19.239Z,96764.28
2022-12-08T21:25:47.352Z,96763.88
2022-12-08T21:28:13.968Z,96764.31
2022-12-08T21:30:41.751Z,96766.63
2022-12-08T21:33:08.719Z,96755.66
2022-12-08T21:35:35.426Z,96760.97
2022-12-08T21:38:02.208Z,96756.69
2022-12-08T21:40:28.975Z,96756.25
2022-12-08T21:42:55.739Z,96759.66
2022-12-08T21:45:22.653Z,96762.00
2022-12-08T21:47:50.695Z,96762.19
2022-12-08T21:50:18.601Z,96763.88
2022-12-08T21:52:47.944Z,96769.41
2022-12-08T21:55:16.372Z,96763.16
2022-12-08T21:57:43.240Z,96760.44
2022-12-08T22:00:13.385Z,96761.63
2022-12-08T22:02:40.649Z,96755.38
2022-12-08T22:05:07.912Z,96758.59
2022-12-08T22:07:38.423Z,96764.06
2022-12-08T22:10:07.707Z,96758.69
2022-12-08T22:12:35.977Z,96757.69
2022-12-08T22:15:05.748Z,96765.50
2022-12-08T22:17:36.439Z,96759.47
2022-12-08T22:20:08.102Z,96762.38
2022-12-08T22:22:35.374Z,96761.19
2022-12-08T22:25:03.267Z,96761.91
2022-12-08T22:27:30.110Z,96753.56
2022-12-08T22:29:56.757Z,96761.13
2022-12-08T22:32:23.502Z,96753.06
2022-12-08T22:34:50.127Z,96746.75
2022-12-08T22:37:16.856Z,96765.75
2022-12-08T22:39:43.475Z,96754.78
2022-12-08T22:42:10.111Z,96763.31
2022-12-08T22:44:36.677Z,96760.38
2022-12-08T22:47:03.511Z,96763.25
2022-12-08T22:49:31.634Z,96762.09
2022-12-08T22:51:58.512Z,96764.50
2022-12-08T22:54:25.100Z,96763.59
2022-12-08T22:56:52.345Z,96763.84
2022-12-08T22:59:18.876Z,96763.91
2022-12-08T23:01:45.399Z,96745.63
2022-12-08T23:04:17.428Z,96744.84
2022-12-08T23:06:44.829Z,96750.91
2022-12-08T23:09:11.860Z,96738.75
2022-12-08T23:11:38.726Z,96742.59
2022-12-08T23:14:05.326Z,96743.53
2022-12-08T23:16:33.559Z,96737.03
2022-12-08T23:19:00.346Z,96741.63
2022-12-08T23:21:27.206Z,96728.78
2022-12-08T23:23:53.980Z,96745.88
2022-12-08T23:26:26.915Z,96731.75
2022-12-08T23:28:54.050Z,96729.75
2022-12-08T23:31:21.512Z,96727.13
2022-12-08T23:33:48.767Z,96711.50
2022-12-08T23:36:16.673Z,96712.28
2022-12-08T23:38:43.766Z,96710.63
2022-12-08T23:41:11.842Z,96702.63
2022-12-08T23:43:46.269Z,96706.84
2022-12-08T23:46:15.122Z,96708.28
2022-12-08T23:48:42.149Z,96704.13
2022-12-08T23:51:09.247Z,96703.09
2022-12-08T23:53:35.940Z,96701.34
2022-12-08T23:56:05.743Z,96706.47
2022-12-08T23:58:33.359Z,96696.50
